createdAt,value
2023-01-19T00:03:18.041Z,70.15
2023-01-19T00:08:22.859Z,70.47
2023-01-19T00:13:27.865Z,70.17
2023-01-19T00:18:30.973Z,71.76
2023-01-19T00:23:35.816Z,70.83
2023-01-19T00:28:39.232Z,73.67
2023-01-19T00:33:42.692Z,73.11
2023-01-19T00:38:47.515Z,72.56
2023-01-19T00:43:50.980Z,70.71
2023-01-19T00:48:54.269Z,71.55
2023-01-19T00:54:00.000Z,73.65
2023-01-19T00:59:03.528Z,72.71
2023-01-19T01:04:07.030Z,72.65
2023-01-19T01:09:13.094Z,73.78
2023-01-19T01:14:16.616Z,73.99
2023-01-19T01:19:20.558Z,74.05
2023-01-19T01:24:25.338Z,73.52
2023-01-19T01:29:28.895Z,74.88
2023-01-19T01:34:32.243Z,74.27
2023-01-19T01:39:37.123Z,73.73
2023-01-19T01:44:50.054Z,74.79
2023-01-19T01:49:57.761Z,73.04
2023-01-19T01:55:06.962Z,73.97
2023-01-19T02:00:12.223Z,74.53
2023-01-19T02:05:21.231Z,74.64
2023-01-19T02:10:43.329Z,74.13
2023-01-19T02:15:46.826Z,74.18
2023-01-19T02:21:04.786Z,73.92
2023-01-19T02:26:12.054Z,75.43
2023-01-19T02:31:16.371Z,74.65
2023-01-19T02:36:26.097Z,75.16
2023-01-19T02:41:37.373Z,75.00
2023-01-19T02:46:41.203Z,74.94
2023-01-19T02:51:45.416Z,74.34
2023-01-19T02:57:15.657Z,74.21
2023-01-19T03:02:33.370Z,74.93
2023-01-19T03:07:50.685Z,74.85
2023-01-19T03:13:04.209Z,74.79
2023-01-19T03:18:10.944Z,75.43
2023-01-19T03:23:16.618Z,74.66
2023-01-19T03:28:24.305Z,74.39
2023-01-19T03:33:31.550Z,73.88
2023-01-19T03:38:38.117Z,74.01
2023-01-19T03:43:44.581Z,74.79
2023-01-19T03:48:49.802Z,74.71
2023-01-19T03:53:53.200Z,74.04
2023-01-19T03:58:57.941Z,74.33
2023-01-19T04:04:01.428Z,72.74
2023-01-19T04:09:05.038Z,72.63
2023-01-19T04:14:09.958Z,73.74
2023-01-19T04:19:13.608Z,73.62
2023-01-19T04:24:16.963Z,74.70
2023-01-19T04:29:21.844Z,74.41
2023-01-19T04:34:25.296Z,74.55
2023-01-19T04:39:28.800Z,74.55
2023-01-19T04:44:33.706Z,73.63
2023-01-19T04:49:37.841Z,74.93
2023-01-19T04:54:41.258Z,73.40
2023-01-19T04:59:46.111Z,74.39
2023-01-19T05:04:49.363Z,75.47
2023-01-19T05:09:52.985Z,74.81
2023-01-19T05:14:57.800Z,74.79
2023-01-19T05:20:01.129Z,75.07
2023-01-19T05:25:05.020Z,74.58
2023-01-19T05:30:11.457Z,74.38
2023-01-19T05:35:20.109Z,75.02
2023-01-19T05:40:28.898Z,74.58
2023-01-19T05:45:34.087Z,73.81
2023-01-19T05:50:37.426Z,73.48
2023-01-19T05:55:40.771Z,73.89
2023-01-19T06:00:45.505Z,73.75
2023-01-19T06:05:49.057Z,73.19
2023-01-19T06:10:52.540Z,73.81
2023-01-19T06:16:01.448Z,72.53
2023-01-19T06:21:07.548Z,73.63
2023-01-19T06:26:10.985Z,73.62
2023-01-19T06:31:16.002Z,73.46
2023-01-19T06:36:19.581Z,73.26
2023-01-19T06:41:22.895Z,73.98
2023-01-19T06:46:27.614Z,74.12
2023-01-19T06:51:33.233Z,73.79
2023-01-19T06:56:36.519Z,73.85
2023-01-19T07:01:41.587Z,73.39
2023-01-19T07:06:45.238Z,74.62
2023-01-19T07:11:49.960Z,74.52
2023-01-19T07:16:55.004Z,73.95
2023-01-19T07:21:58.773Z,74.05
2023-01-19T07:27:02.340Z,74.09
2023-01-19T07:32:07.681Z,73.95
2023-01-19T07:37:11.343Z,73.80
2023-01-19T07:42:14.733Z,73.58
2023-01-19T07:47:20.107Z,72.98
2023-01-19T07:52:23.597Z,74.13
2023-01-19T07:57:26.916Z,73.67
2023-01-19T08:02:32.022Z,74.00
2023-01-19T08:07:35.431Z,73.26
2023-01-19T08:12:38.760Z,74.20
2023-01-19T08:17:44.207Z,73.54
2023-01-19T08:22:48.949Z,73.52
2023-01-19T08:27:55.051Z,73.09
2023-01-19T08:33:04.813Z,74.36
2023-01-19T08:38:09.771Z,74.33
2023-01-19T08:43:13.856Z,75.13
2023-01-19T08:48:22.219Z,73.96
2023-01-19T08:53:25.768Z,74.82
2023-01-19T08:58:29.606Z,74.63
2023-01-19T09:03:34.476Z,74.20
2023-01-19T09:08:38.739Z,75.49
2023-01-19T09:13:42.776Z,75.01
2023-01-19T09:18:47.528Z,74.77
2023-01-19T09:23:50.941Z,74.67
2023-01-19T09:28:54.425Z,75.23
2023-01-19T09:33:59.205Z,74.80
2023-01-19T09:39:03.060Z,74.66
2023-01-19T09:44:09.676Z,75.50
2023-01-19T09:49:17.777Z,74.42
2023-01-19T09:54:25.520Z,74.07
2023-01-19T09:59:31.534Z,74.02
2023-01-19T10:04:41.411Z,74.02
2023-01-19T10:09:59.178Z,74.23
2023-01-19T10:15:12.560Z,73.79
2023-01-19T10:20:26.226Z,74.24
2023-01-19T10:25:29.977Z,75.01
2023-01-19T10:30:33.819Z,73.80
2023-01-19T10:35:39.129Z,74.88
2023-01-19T10:40:49.780Z,73.57
2023-01-19T10:45:53.147Z,74.75
2023-01-19T10:51:05.995Z,74.10
2023-01-19T10:56:18.687Z,73.68
2023-01-19T11:01:24.575Z,73.69
2023-01-19T11:06:31.287Z,73.43
2023-01-19T11:11:46.680Z,72.53
2023-01-19T11:16:53.193Z,72.65
2023-01-19T11:22:12.627Z,72.67
2023-01-19T11:27:18.563Z,73.36
2023-01-19T11:32:23.681Z,73.19
2023-01-19T11:37:31.734Z,72.87
2023-01-19T11:42:37.328Z,73.17
2023-01-19T11:47:44.260Z,73.59
2023-01-19T11:52:53.613Z,73.08
2023-01-19T11:57:57.579Z,73.95
2023-01-19T12:03:06.912Z,74.83
2023-01-19T12:08:16.941Z,72.95
2023-01-19T12:13:23.831Z,72.76
2023-01-19T12:18:32.968Z,73.25
2023-01-19T12:23:55.021Z,74.19
2023-01-19T12:29:01.677Z,73.37
2023-01-19T12:34:36.203Z,73.64
2023-01-19T12:39:50.385Z,74.51
2023-01-19T12:45:08.212Z,73.91
2023-01-19T12:50:19.299Z,73.62
2023-01-19T12:55:26.069Z,73.50
2023-01-19T13:00:33.557Z,73.84
2023-01-19T13:05:58.372Z,73.80
2023-01-19T13:11:24.355Z,72.62
2023-01-19T13:17:00.406Z,72.80
2023-01-19T13:23:04.952Z,73.47
2023-01-19T13:28:17.565Z,73.26
2023-01-19T13:33:23.664Z,73.02
2023-01-19T13:38:29.337Z,72.85
2023-01-19T13:43:38.698Z,73.12
2023-01-19T13:48:53.624Z,72.63
2023-01-19T13:53:58.232Z,72.84
2023-01-19T13:59:11.989Z,72.98
2023-01-19T14:04:30.743Z,72.51
2023-01-19T14:09:34.206Z,72.74
2023-01-19T14:14:39.861Z,72.89
2023-01-19T14:19:50.251Z,72.16
2023-01-19T14:24:53.796Z,72.73
2023-01-19T14:30:16.554Z,72.70
2023-01-19T14:35:26.201Z,72.47
2023-01-19T14:40:31.168Z,72.11
2023-01-19T14:45:36.583Z,72.89
2023-01-19T14:50:51.013Z,72.60
2023-01-19T14:56:07.041Z,72.44
2023-01-19T15:01:12.048Z,72.69
2023-01-19T15:06:18.115Z,72.41
2023-01-19T15:11:24.973Z,73.53
2023-01-19T15:16:33.033Z,73.65
2023-01-19T15:21:36.481Z,73.05
2023-01-19T15:26:41.367Z,72.74
2023-01-19T15:31:45.818Z,72.61
2023-01-19T15:36:49.349Z,72.67
2023-01-19T15:41:52.691Z,72.82
2023-01-19T15:46:57.969Z,72.36
2023-01-19T15:52:01.585Z,72.71
2023-01-19T15:57:05.156Z,73.34
2023-01-19T16:02:11.313Z,73.56
2023-01-19T16:07:14.858Z,72.97
2023-01-19T16:12:18.188Z,72.35
2023-01-19T16:17:23.168Z,72.89
2023-01-19T16:22:26.680Z,72.10
2023-01-19T16:27:30.580Z,72.96
2023-01-19T16:32:36.582Z,72.38
2023-01-19T16:37:40.144Z,72.47
2023-01-19T16:42:43.471Z,71.95
2023-01-19T16:47:50.819Z,72.32
2023-01-19T16:52:57.674Z,72.54
2023-01-19T16:58:01.161Z,73.05
2023-01-19T17:03:06.119Z,73.50
2023-01-19T17:08:09.727Z,72.52
2023-01-19T17:13:13.066Z,72.42
2023-01-19T17:18:17.907Z,72.58
2023-01-19T17:23:21.370Z,73.72
2023-01-19T17:28:25.084Z,72.71
2023-01-19T17:33:29.855Z,72.64
2023-01-19T17:38:33.445Z,72.88
2023-01-19T17:43:36.858Z,73.67
2023-01-19T17:48:41.900Z,73.70
2023-01-19T17:53:45.058Z,73.81
2023-01-19T17:58:50.974Z,72.92
2023-01-19T18:03:56.318Z,73.06
2023-01-19T18:09:00.284Z,74.15
2023-01-19T18:14:03.700Z,73.29
2023-01-19T18:19:10.645Z,73.87
2023-01-19T18:24:14.095Z,74.08
2023-01-19T18:29:20.657Z,74.38
2023-01-19T18:34:25.388Z,73.99
2023-01-19T18:39:31.247Z,74.17
2023-01-19T18:44:34.567Z,74.07
2023-01-19T18:49:39.491Z,73.58
2023-01-19T18:54:42.539Z,74.71
2023-01-19T18:59:49.023Z,75.19
2023-01-19T19:04:53.795Z,74.40
2023-01-19T19:09:57.234Z,75.10
2023-01-19T19:15:00.829Z,75.10
2023-01-19T19:20:05.993Z,74.87
2023-01-19T19:25:10.214Z,74.86
2023-01-19T19:30:15.968Z,74.51
2023-01-19T19:35:21.454Z,74.24
2023-01-19T19:40:25.239Z,75.26
2023-01-19T19:45:28.556Z,74.92
2023-01-19T19:50:33.433Z,74.04
2023-01-19T19:55:36.491Z,73.93
2023-01-19T20:00:39.899Z,75.02
2023-01-19T20:05:45.047Z,74.60
2023-01-19T20:10:48.528Z,75.15
2023-01-19T20:15:52.715Z,74.28
2023-01-19T20:20:57.672Z,74.50
2023-01-19T20:26:05.668Z,74.09
2023-01-19T20:31:16.975Z,73.73
2023-01-19T20:36:24.446Z,74.14
2023-01-19T20:41:29.891Z,74.25
2023-01-19T20:46:33.226Z,73.95
2023-01-19T20:51:45.334Z,74.03
2023-01-19T20:56:49.009Z,74.17
2023-01-19T21:01:52.639Z,74.19
2023-01-19T21:06:57.480Z,73.98
2023-01-19T21:12:00.974Z,74.47
2023-01-19T21:17:04.326Z,74.58
2023-01-19T21:22:19.375Z,74.16
2023-01-19T21:27:22.570Z,75.65
2023-01-19T21:32:27.526Z,74.88
2023-01-19T21:37:32.236Z,74.23
2023-01-19T21:42:35.662Z,74.53
2023-01-19T21:47:39.053Z,73.99
2023-01-19T21:52:44.435Z,73.52
2023-01-19T21:57:47.763Z,73.74
2023-01-19T22:03:03.071Z,73.78
2023-01-19T22:08:09.778Z,73.97
2023-01-19T22:13:13.238Z,73.77
2023-01-19T22:18:16.669Z,73.05
2023-01-19T22:23:21.377Z,74.10
2023-01-19T22:28:24.856Z,73.76
2023-01-19T22:33:29.498Z,73.48
2023-01-19T22:38:34.201Z,73.93
2023-01-19T22:43:39.620Z,73.33
2023-01-19T22:48:42.601Z,72.81
2023-01-19T22:53:47.944Z,73.15
2023-01-19T22:58:51.386Z,73.29
2023-01-19T23:03:55.347Z,73.42
2023-01-19T23:09:02.767Z,73.76
2023-01-19T23:14:07.563Z,73.56
2023-01-19T23:19:12.837Z,73.65
2023-01-19T23:24:17.960Z,73.14
2023-01-19T23:29:21.492Z,74.12
2023-01-19T23:34:24.947Z,74.26
2023-01-19T23:39:29.955Z,73.57
2023-01-19T23:44:35.238Z,74.14
2023-01-19T23:49:39.911Z,73.95
2023-01-19T23:54:45.025Z,72.93
2023-01-19T23:59:48.441Z,73.04
